createdAt,value
2018-05-12T00:01:05.497Z,98585.86
2018-05-12T00:03:33.646Z,98587.73
2018-05-12T00:06:01.815Z,98595.97
2018-05-12T00:08:29.955Z,98591.56
2018-05-12T00:10:58.083Z,98594.14
2018-05-12T00:13:26.221Z,98597.23
2018-05-12T00:15:54.386Z,98595.88
2018-05-12T00:18:22.504Z,98590.12
2018-05-12T00:20:50.670Z,98593.76
2018-05-12T00:23:18.852Z,98587.87
2018-05-12T00:25:46.990Z,98597.70
2018-05-12T00:28:15.135Z,98589.27
2018-05-12T00:30:43.279Z,98592.52
2018-05-12T00:33:11.413Z,98593.72
2018-05-12T00:35:39.649Z,98590.11
2018-05-12T00:38:07.818Z,98587.02
2018-05-12T00:40:35.970Z,98589.85
2018-05-12T00:43:04.196Z,98592.97
2018-05-12T00:45:32.284Z,98600.23
2018-05-12T00:48:00.423Z,98594.34
2018-05-12T00:50:28.589Z,98595.28
2018-05-12T00:52:56.752Z,98592.06
2018-05-12T00:55:24.903Z,98599.72
2018-05-12T00:57:53.087Z,98594.48
2018-05-12T01:00:21.193Z,98602.02
2018-05-12T01:02:49.337Z,98597.86
2018-05-12T01:05:17.484Z,98601.90
2018-05-12T01:07:46.414Z,98601.09
2018-05-12T01:10:14.553Z,98604.06
2018-05-12T01:12:42.731Z,98599.34
2018-05-12T01:15:10.887Z,98602.59
2018-05-12T01:17:38.993Z,98597.63
2018-05-12T01:20:07.135Z,98602.88
2018-05-12T01:22:35.254Z,98595.38
2018-05-12T01:25:03.406Z,98596.34
2018-05-12T01:27:31.570Z,98592.17
2018-05-12T01:29:59.688Z,98594.05
2018-05-12T01:32:27.838Z,98595.15
2018-05-12T01:34:55.972Z,98590.44
2018-05-12T01:37:24.107Z,98590.45
2018-05-12T01:39:52.247Z,98596.23
2018-05-12T01:42:20.416Z,98592.87
2018-05-12T01:44:48.543Z,98587.11
2018-05-12T01:47:16.673Z,98587.24
2018-05-12T01:49:44.838Z,98587.12
2018-05-12T01:52:12.970Z,98584.18
2018-05-12T01:54:41.128Z,98582.84
2018-05-12T01:57:10.256Z,98552.27
2018-05-12T01:59:38.635Z,98586.21
2018-05-12T02:02:06.765Z,98585.00
2018-05-12T02:04:34.915Z,98588.34
2018-05-12T02:07:03.084Z,98592.64
2018-05-12T02:09:31.236Z,98600.00
2018-05-12T02:11:59.373Z,98607.23
2018-05-12T02:14:27.512Z,98602.16
2018-05-12T02:16:55.644Z,98603.38
2018-05-12T02:19:23.789Z,98602.97
2018-05-12T02:21:51.915Z,98603.91
2018-05-12T02:24:20.039Z,98610.46
2018-05-12T02:26:48.175Z,98607.25
2018-05-12T02:29:16.319Z,98615.42
2018-05-12T02:31:44.457Z,98620.94
2018-05-12T02:34:12.643Z,98618.39
2018-05-12T02:36:40.790Z,98625.09
2018-05-12T02:39:09.937Z,98623.56
2018-05-12T02:41:38.090Z,98620.77
2018-05-12T02:44:06.230Z,98613.53
2018-05-12T02:46:34.357Z,98618.20
2018-05-12T02:49:02.494Z,98617.14
2018-05-12T02:51:30.639Z,98621.45
2018-05-12T02:53:58.781Z,98616.08
2018-05-12T02:56:26.928Z,98619.42
2018-05-12T02:58:55.068Z,98625.06
2018-05-12T03:01:23.225Z,98621.30
2018-05-12T03:03:51.364Z,98630.55
2018-05-12T03:06:19.507Z,98626.12
2018-05-12T03:08:47.632Z,98628.52
2018-05-12T03:11:15.775Z,98621.17
2018-05-12T03:13:43.905Z,98622.10
2018-05-12T03:16:12.043Z,98630.80
2018-05-12T03:18:40.171Z,98635.06
2018-05-12T03:21:08.306Z,98640.02
2018-05-12T03:23:36.433Z,98640.02
2018-05-12T03:26:04.604Z,98638.80
2018-05-12T03:28:32.717Z,98638.27
2018-05-12T03:31:00.869Z,98646.84
2018-05-12T03:33:29.023Z,98640.54
2018-05-12T03:35:57.145Z,98640.82
2018-05-12T03:38:25.285Z,98644.84
2018-05-12T03:40:53.459Z,98654.88
2018-05-12T03:43:21.593Z,98649.92
2018-05-12T03:45:49.726Z,98651.67
2018-05-12T03:48:17.854Z,98650.33
2018-05-12T03:50:46.005Z,98648.06
2018-05-12T03:53:14.135Z,98651.67
2018-05-12T03:55:42.278Z,98651.95
2018-05-12T03:58:10.429Z,98656.66
2018-05-12T04:00:38.610Z,98656.27
2018-05-12T04:03:06.825Z,98658.42
2018-05-12T04:05:46.811Z,98654.67
2018-05-12T04:08:26.624Z,98664.91
2018-05-12T04:11:06.595Z,98668.27
2018-05-12T04:13:34.730Z,98670.14
2018-05-12T04:16:02.868Z,98669.88
2018-05-12T04:18:31.014Z,98669.74
2018-05-12T04:20:59.152Z,98666.67
2018-05-12T04:23:27.301Z,98672.55
2018-05-12T04:25:55.441Z,98670.24
2018-05-12T04:28:23.595Z,98673.58
2018-05-12T04:30:52.893Z,98673.98
2018-05-12T04:33:21.019Z,98665.06
2018-05-12T04:35:49.159Z,98671.36
2018-05-12T04:38:17.297Z,98670.30
2018-05-12T04:40:45.420Z,98674.69
2018-05-12T04:43:13.558Z,98675.34
2018-05-12T04:45:41.704Z,98679.62
2018-05-12T04:48:09.839Z,98678.11
2018-05-12T04:50:37.973Z,98676.33
2018-05-12T04:53:06.191Z,98679.39
2018-05-12T04:55:34.368Z,98680.41
2018-05-12T04:58:02.525Z,98681.16
2018-05-12T05:00:30.662Z,98678.28
2018-05-12T05:02:58.785Z,98672.86
2018-05-12T05:05:26.918Z,98671.47
2018-05-12T05:07:55.070Z,98669.67
2018-05-12T05:10:23.243Z,98673.38
2018-05-12T05:12:51.390Z,98667.44
2018-05-12T05:15:19.527Z,98682.87
2018-05-12T05:17:47.666Z,98682.73
2018-05-12T05:20:15.873Z,98686.41
2018-05-12T05:22:43.949Z,98685.81
2018-05-12T05:25:12.090Z,98688.88
2018-05-12T05:27:40.226Z,98686.39
2018-05-12T05:30:08.355Z,98684.85
2018-05-12T05:32:36.499Z,98677.42
2018-05-12T05:35:04.643Z,98678.05
2018-05-12T05:37:32.782Z,98673.84
2018-05-12T05:40:00.917Z,98671.78
2018-05-12T05:42:29.074Z,98675.02
2018-05-12T05:44:57.220Z,98675.87
2018-05-12T05:47:25.346Z,98681.65
2018-05-12T05:49:53.494Z,98673.20
2018-05-12T05:52:21.635Z,98681.38
2018-05-12T05:54:49.777Z,98670.33
2018-05-12T05:57:17.913Z,98676.67
2018-05-12T05:59:46.047Z,98682.19
2018-05-12T06:02:14.176Z,98685.66
2018-05-12T06:04:42.340Z,98687.37
2018-05-12T06:07:10.828Z,98686.44
2018-05-12T06:09:38.876Z,98678.36
2018-05-12T06:12:07.017Z,98681.78
2018-05-12T06:14:35.167Z,98684.03
2018-05-12T06:17:03.307Z,98678.38
2018-05-12T06:19:33.062Z,98678.24
2018-05-12T06:22:01.190Z,98683.20
2018-05-12T06:24:29.322Z,98684.52
2018-05-12T06:26:57.482Z,98691.68
2018-05-12T06:29:27.171Z,98682.03
2018-05-12T06:31:56.569Z,98682.14
2018-05-12T06:34:24.758Z,98672.86
2018-05-12T06:36:52.906Z,98676.45
2018-05-12T06:39:21.072Z,98675.56
2018-05-12T06:41:49.182Z,98669.45
2018-05-12T06:44:17.338Z,98675.66
2018-05-12T06:46:45.485Z,98676.42
2018-05-12T06:49:13.712Z,98676.40
2018-05-12T06:51:41.831Z,98679.89
2018-05-12T06:54:09.975Z,98674.77
2018-05-12T06:56:38.139Z,98674.83
2018-05-12T06:59:06.297Z,98675.41
2018-05-12T07:01:34.443Z,98675.17
2018-05-12T07:04:02.606Z,98674.20
2018-05-12T07:06:30.738Z,98674.08
2018-05-12T07:08:58.878Z,98673.80
2018-05-12T07:11:27.011Z,98668.48
2018-05-12T07:13:55.159Z,98671.33
2018-05-12T07:16:23.312Z,98670.47
2018-05-12T07:18:51.463Z,98671.56
2018-05-12T07:21:19.585Z,98665.57
2018-05-12T07:23:47.718Z,98662.56
2018-05-12T07:26:15.854Z,98659.86
2018-05-12T07:28:43.994Z,98660.75
2018-05-12T07:31:12.150Z,98655.76
2018-05-12T07:33:40.294Z,98653.67
2018-05-12T07:36:08.431Z,98653.97
2018-05-12T07:38:36.597Z,98650.44
2018-05-12T07:41:04.729Z,98650.02
2018-05-12T07:43:32.855Z,98641.94
2018-05-12T07:46:00.990Z,98644.48
2018-05-12T07:48:29.168Z,98648.08
2018-05-12T07:50:57.351Z,98641.96
2018-05-12T07:53:25.512Z,98644.78
2018-05-12T07:55:53.655Z,98637.02
2018-05-12T07:58:21.779Z,98635.69
2018-05-12T08:00:49.912Z,98641.67
2018-05-12T08:03:18.047Z,98632.20
2018-05-12T08:05:46.187Z,98627.52
2018-05-12T08:08:14.337Z,98624.02
2018-05-12T08:10:42.496Z,98621.73
2018-05-12T08:13:10.652Z,98626.22
2018-05-12T08:15:38.790Z,98620.34
2018-05-12T08:18:06.953Z,98623.66
2018-05-12T08:20:35.177Z,98623.63
2018-05-12T08:23:03.220Z,98621.58
2018-05-12T08:25:32.898Z,98617.05
2018-05-12T08:28:01.045Z,98617.09
2018-05-12T08:30:30.069Z,98612.80
2018-05-12T08:33:00.127Z,98614.13
2018-05-12T08:35:28.334Z,98603.26
2018-05-12T08:37:56.481Z,98602.19
2018-05-12T08:40:24.650Z,98598.16
2018-05-12T08:42:52.791Z,98591.81
2018-05-12T08:45:20.943Z,98586.43
2018-05-12T08:47:49.128Z,98594.78
2018-05-12T08:50:17.264Z,98587.96
2018-05-12T08:52:45.400Z,98591.25
2018-05-12T08:55:13.550Z,98588.10
2018-05-12T08:57:41.688Z,98590.11
2018-05-12T09:00:09.810Z,98590.42
2018-05-12T09:05:12.190Z,98583.73
2018-05-12T09:07:40.333Z,98587.69
2018-05-12T09:10:08.469Z,98579.36
2018-05-12T09:12:36.594Z,98575.64
2018-05-12T09:15:04.864Z,98575.60
2018-05-12T09:17:32.999Z,98576.77
2018-05-12T09:20:01.140Z,98576.06
2018-05-12T09:22:29.291Z,98572.45
2018-05-12T09:24:57.419Z,98574.54
2018-05-12T09:27:25.577Z,98569.25
2018-05-12T09:29:53.711Z,98569.47
2018-05-12T09:32:21.854Z,98556.70
2018-05-12T09:34:50.014Z,98554.85
2018-05-12T09:37:18.222Z,98554.56
2018-05-12T09:39:46.339Z,98550.17
2018-05-12T09:42:14.561Z,98548.34
2018-05-12T09:44:42.625Z,98540.88
2018-05-12T09:47:10.787Z,98537.39
2018-05-12T09:49:38.925Z,98541.55
2018-05-12T09:52:07.076Z,98532.62
2018-05-12T09:54:35.217Z,98533.91
2018-05-12T09:57:03.380Z,98532.79
2018-05-12T09:59:31.736Z,98528.73
2018-05-12T10:01:59.806Z,98526.20
2018-05-12T10:04:27.932Z,98521.95
2018-05-12T10:06:56.095Z,98526.28
2018-05-12T10:09:24.231Z,98518.09
2018-05-12T10:11:52.365Z,98516.86
2018-05-12T10:14:20.526Z,98514.45
2018-05-12T10:16:48.694Z,98507.64
2018-05-12T10:19:16.861Z,98515.71
2018-05-12T10:21:45.066Z,98511.09
2018-05-12T10:24:13.235Z,98510.58
2018-05-12T10:26:41.340Z,98506.41
2018-05-12T10:29:10.223Z,98507.44
2018-05-12T10:31:38.350Z,98501.61
2018-05-12T10:34:06.483Z,98494.83
2018-05-12T10:36:34.643Z,98495.47
2018-05-12T10:39:02.770Z,98483.86
2018-05-12T10:41:30.907Z,98476.63
2018-05-12T10:43:59.073Z,98465.72
2018-05-12T10:46:27.191Z,98463.90
2018-05-12T10:48:55.341Z,98465.49
2018-05-12T10:51:23.669Z,98457.12
2018-05-12T10:53:51.812Z,98451.44
2018-05-12T10:56:19.934Z,98448.09
2018-05-12T10:58:48.109Z,98443.94
2018-05-12T11:01:16.241Z,98436.38
2018-05-12T11:03:44.375Z,98432.11
2018-05-12T11:06:12.534Z,98433.70
2018-05-12T11:08:40.671Z,98426.95
2018-05-12T11:11:09.295Z,98428.67
2018-05-12T11:13:37.730Z,98419.92
2018-05-12T11:16:05.979Z,98411.25
2018-05-12T11:18:34.062Z,98417.71
2018-05-12T11:21:02.212Z,98410.70
2018-05-12T11:23:30.363Z,98406.62
2018-05-12T11:25:58.499Z,98409.12
2018-05-12T11:28:26.648Z,98406.77
2018-05-12T11:30:54.870Z,98408.46
2018-05-12T11:33:23.018Z,98402.27
2018-05-12T11:35:51.348Z,98398.41
2018-05-12T11:38:19.466Z,98403.85
2018-05-12T11:40:47.634Z,98398.17
2018-05-12T11:43:15.803Z,98391.88
2018-05-12T11:45:43.941Z,98396.03
2018-05-12T11:48:12.093Z,98381.90
2018-05-12T11:50:40.267Z,98388.34
2018-05-12T11:53:08.458Z,98372.05
2018-05-12T11:55:36.600Z,98374.72
2018-05-12T11:58:04.774Z,98366.83
2018-05-12T12:00:32.920Z,98369.91
2018-05-12T12:03:01.075Z,98364.02
2018-05-12T12:05:29.387Z,98345.86
2018-05-12T12:07:57.512Z,98343.33
2018-05-12T12:10:25.663Z,98343.60
2018-05-12T12:12:53.839Z,98345.98
2018-05-12T12:15:21.987Z,98336.25
2018-05-12T12:17:50.137Z,98334.38
2018-05-12T12:20:18.308Z,98325.52
2018-05-12T12:22:46.450Z,98321.82
2018-05-12T12:25:14.569Z,98325.35
2018-05-12T12:27:42.712Z,98325.63
2018-05-12T12:30:10.853Z,98327.44
2018-05-12T12:32:39.024Z,98311.03
2018-05-12T12:35:07.274Z,98312.47
2018-05-12T12:37:35.405Z,98316.81
2018-05-12T12:40:03.539Z,98321.11
2018-05-12T12:42:31.859Z,98328.33
2018-05-12T12:44:59.988Z,98324.79
2018-05-12T12:47:28.116Z,98332.45
2018-05-12T12:49:56.280Z,98333.80
2018-05-12T12:52:24.381Z,98335.33
2018-05-12T12:54:52.505Z,98333.44
2018-05-12T12:57:20.653Z,98328.91
2018-05-12T12:59:48.762Z,98317.23
2018-05-12T13:02:16.903Z,98312.52
2018-05-12T13:04:45.316Z,98317.38
2018-05-12T13:07:13.353Z,98320.48
2018-05-12T13:09:41.482Z,98310.91
2018-05-12T13:12:09.784Z,98312.41
2018-05-12T13:14:41.043Z,98305.86
2018-05-12T13:17:09.177Z,98307.11
2018-05-12T13:19:37.343Z,98297.34
2018-05-12T13:22:05.600Z,98299.21
2018-05-12T13:24:33.659Z,98302.66
2018-05-12T13:27:01.838Z,98292.94
2018-05-12T13:29:29.968Z,98301.39
2018-05-12T13:31:58.095Z,98303.86
2018-05-12T13:34:26.255Z,98304.98
2018-05-12T13:36:54.379Z,98297.84
2018-05-12T13:39:22.523Z,98297.33
2018-05-12T13:41:50.689Z,98301.23
2018-05-12T13:44:18.855Z,98290.14
2018-05-12T13:46:46.979Z,98296.82
2018-05-12T13:49:15.215Z,98295.88
2018-05-12T13:51:43.340Z,98298.79
2018-05-12T13:54:11.466Z,98296.80
2018-05-12T13:56:39.770Z,98303.69
2018-05-12T13:59:08.731Z,98309.13
2018-05-12T14:01:36.897Z,98307.53
2018-05-12T14:04:05.047Z,98313.42
2018-05-12T14:06:33.183Z,98307.20
2018-05-12T14:09:01.311Z,98306.23
2018-05-12T14:11:29.472Z,98305.87
2018-05-12T14:13:57.582Z,98308.02
2018-05-12T14:16:25.716Z,98309.64
2018-05-12T14:18:53.967Z,98309.22
2018-05-12T14:21:22.083Z,98306.67
2018-05-12T14:23:50.222Z,98311.46
2018-05-12T14:26:18.520Z,98312.11
2018-05-12T14:28:46.658Z,98313.81
2018-05-12T14:31:14.804Z,98314.73
2018-05-12T14:33:42.969Z,98311.02
2018-05-12T14:36:11.121Z,98307.99
2018-05-12T14:38:39.244Z,98308.14
2018-05-12T14:41:07.453Z,98302.14
2018-05-12T14:43:35.567Z,98298.48
2018-05-12T14:46:03.720Z,98302.16
2018-05-12T14:48:31.861Z,98298.20
2018-05-12T14:50:59.996Z,98298.91
2018-05-12T14:53:28.148Z,98294.41
2018-05-12T14:55:58.353Z,98299.06
2018-05-12T14:58:26.492Z,98292.42
2018-05-12T15:00:54.613Z,98291.23
2018-05-12T15:03:22.768Z,98292.89
2018-05-12T15:05:50.907Z,98284.23
2018-05-12T15:08:19.096Z,98296.37
2018-05-12T15:10:47.234Z,98286.44
2018-05-12T15:13:15.352Z,98284.67
2018-05-12T15:15:43.506Z,98286.73
2018-05-12T15:18:11.673Z,98280.13
2018-05-12T15:20:39.783Z,98271.02
2018-05-12T15:23:07.915Z,98269.88
2018-05-12T15:25:36.199Z,98267.03
2018-05-12T15:28:04.319Z,98268.69
2018-05-12T15:30:32.446Z,98266.22
2018-05-12T15:33:00.899Z,98262.33
2018-05-12T15:35:29.034Z,98256.03
2018-05-12T15:37:57.176Z,98253.27
2018-05-12T15:40:25.322Z,98253.09
2018-05-12T15:42:53.475Z,98254.56
2018-05-12T15:45:21.601Z,98255.61
2018-05-12T15:47:49.757Z,98256.10
2018-05-12T15:50:17.915Z,98251.55
2018-05-12T15:52:46.067Z,98254.47
2018-05-12T15:55:14.354Z,98248.73
2018-05-12T15:57:42.500Z,98258.76
2018-05-12T16:00:10.651Z,98254.27
2018-05-12T16:02:38.778Z,98250.38
2018-05-12T16:05:06.988Z,98251.50
2018-05-12T16:07:35.119Z,98251.46
2018-05-12T16:10:03.281Z,98251.92
2018-05-12T16:12:31.411Z,98252.47
2018-05-12T16:14:59.543Z,98255.72
2018-05-12T16:17:27.687Z,98256.25
2018-05-12T16:19:55.794Z,98258.90
2018-05-12T16:22:23.952Z,98255.45
2018-05-12T16:24:52.131Z,98255.25
2018-05-12T16:27:20.276Z,98254.03
2018-05-12T16:29:49.716Z,98248.15
2018-05-12T16:32:18.255Z,98251.63
2018-05-12T16:34:46.444Z,98250.08
2018-05-12T16:37:14.559Z,98246.63
2018-05-12T16:39:42.724Z,98250.08
2018-05-12T16:42:10.850Z,98247.39
2018-05-12T16:44:39.089Z,98240.27
2018-05-12T16:47:07.223Z,98238.86
2018-05-12T16:49:35.340Z,98236.77
2018-05-12T16:52:03.471Z,98236.94
2018-05-12T16:54:31.629Z,98232.97
2018-05-12T16:56:59.747Z,98237.57
2018-05-12T16:59:27.861Z,98233.28
2018-05-12T17:01:56.068Z,98227.98
2018-05-12T17:04:24.120Z,98228.34
2018-05-12T17:06:52.234Z,98226.91
2018-05-12T17:09:20.379Z,98226.41
2018-05-12T17:11:48.502Z,98234.82
2018-05-12T17:14:16.635Z,98233.81
2018-05-12T17:16:44.759Z,98225.13
2018-05-12T17:19:12.897Z,98229.35
2018-05-12T17:21:41.042Z,98229.30
2018-05-12T17:24:09.178Z,98228.14
2018-05-12T17:26:37.307Z,98222.02
2018-05-12T17:29:05.468Z,98225.36
2018-05-12T17:31:33.661Z,98224.53
2018-05-12T17:34:01.810Z,98225.66
2018-05-12T17:36:29.939Z,98225.19
2018-05-12T17:38:58.081Z,98227.17
2018-05-12T17:41:26.215Z,98224.87
2018-05-12T17:43:54.378Z,98225.09
2018-05-12T17:46:22.510Z,98228.60
2018-05-12T17:48:50.652Z,98224.92
2018-05-12T17:51:18.864Z,98228.97
2018-05-12T17:53:47.065Z,98227.03
2018-05-12T17:56:15.262Z,98226.33
2018-05-12T17:58:43.424Z,98230.93
2018-05-12T18:01:11.577Z,98225.16
2018-05-12T18:03:39.727Z,98226.08
2018-05-12T18:06:07.859Z,98222.01
2018-05-12T18:08:35.996Z,98225.89
2018-05-12T18:11:04.286Z,98228.45
2018-05-12T18:13:32.416Z,98232.50
2018-05-12T18:16:00.576Z,98229.59
2018-05-12T18:18:28.715Z,98225.56
2018-05-12T18:20:56.857Z,98229.82
2018-05-12T18:23:25.031Z,98226.26
2018-05-12T18:25:53.177Z,98229.20
2018-05-12T18:28:21.327Z,98233.05
2018-05-12T18:30:49.515Z,98229.11
2018-05-12T18:33:17.637Z,98233.61
2018-05-12T18:35:45.781Z,98229.94
2018-05-12T18:38:13.948Z,98231.88
2018-05-12T18:40:43.581Z,98235.80
2018-05-12T18:43:11.796Z,98237.48
2018-05-12T18:45:39.940Z,98238.53
2018-05-12T18:48:08.087Z,98245.91
2018-05-12T18:50:36.280Z,98243.73
2018-05-12T18:53:04.397Z,98242.31
2018-05-12T18:55:32.528Z,98242.08
2018-05-12T18:58:00.662Z,98256.81
2018-05-12T19:00:28.826Z,98258.19
